Junction City, South Dakota
Current Conditions -  °F | °C
As of 3:15 AM on Monday 22 Dec 2014 (Local Time) from KLRJ Reporting Station
Haze Haze  
Wind Chill: 35°   Ceiling: 600
Heat Index: 43°   Visibility: 6mi
Dew Point: 43°   Wind: 15mph
Humidity: 100%   Direction: 170°S
Pressure: 29.54"   Gusts: 23mph
Location:  42.7901°N, 96.6907°W
Report Text: KLRJ 220915Z AUTO 17013G20KT 6SM BR OVC006 06/06 A2954 RMK AO2
Loading
Personal Weather Stations






























Interactive Weather Map New forecast layout! Learn more

10-Day Weather Forecast

Advertisements
Track Severe Weather on mobile